Watson Lake Airport
CYQH : now visible

Airfield :











YOU CAN JOIN US ON...

 
LOGIN :

Register | Disclaimer

   EN    FR    IT 

 









Legend :    VFR   Marginal VFR   IFR   Intensive IFR   Very Intensive IFR
Visi :
Ceiling :
>= 8 km
>= 3000ft
5 to 8 km
1000 to 3000 ft
1500m to 5 km
500 to 1000 ft
800 to 1500m
200 to 500 ft
< 800m
< 200 ft
Symbols :   Thunderstorms  Fog  Heavy snow  Heavy precipitations  Wind > 20 kt






- Airport Elevation : 2255 ft
- IATA code : YQH


CYQH - Watson Lake

CURRENT METAR :
  • 171500Z 31003KT 10SM -SN OVC031 M37/M41 A3028 RMK SC8 SLP358

EXPIRED METARs :
  • 171400Z 27003KT 10SM -SN OVC037 M36/M41 A3026 RMK SC8 SLP351
  • 171300Z 29003KT 15SM -SN OVC053 M36/M40 A3025 RMK SC8 SLP349

TAF TAF CYQH
Valid from the 17 at 12:00 until the 18 at 00:00 UTC


171138Z 1712/1724 VRB03KT P6SM -SN SCT020 BKN040 OVC080
TEMPO 1712/1724 5SM IC -SN BKN020 RMK NXT FCST BY 171800Z



MET'MAP, your aeronautical weather chart ! - Copyright ORBIFLY December 2007 - Disclaimer

ORBIFLY MET'MAP TEAM :

Programming & Development : Alexandra Zaïnal
Concept & original design : Baudouin d'Aumeries
Assistance for programming : Marc-Olivier Méhu
Technical & hardware support : Manuel Goepfert

Contact : metmap@orbifly.com




SOURCES & CREDITS :

   NOAA       Earth
Advisory